LDSP Airport Information

Runway Information
Runway 05 Length 8366 ft width 148 ft
Elevation 70 ft Threshold 0 ft Heading 53
Runway 23 Length 8366 ft Width 148 ft
Elevation 50 ft Threshold 525 ft Heading 233
Airport Frequencies
Type APP Name APP Frequency 120.875 MHZ
Type INFO Name INFO Frequency 128.675 MHZ
Type TWR Name TWR Frequency 124.675 MHZ
Airport Navaids
Type NDB Name Drvenik Frequency 418 KHZ
Type VOR-DME Name Split Frequency 115700 KHZ
Type NDB Name Trogir Frequency 378 KHZ
Airport Weather Information & NOTAM
ADDS - METARS form results

(0113 UTC 22 July 2019)
Data provider http://aviationweather.gov/metar/data/
 
METAR text: LDSP 220100Z AUTO VRB02KT CAVOK 24/15 Q1019
Conditions at: LDSP (SPLIT/KASTEL STA, HR) observed 0100 UTC 22 July 2019
Temperature: 24.0°C (75°F)
Dewpoint: 15.0°C (59°F) [RH = 57%]
Pressure (altimeter): 30.09 inches Hg (1019.0 mb)
Winds: variable direction winds at 2 MPH (2 knots; 1.0 m/s)
Visibility: 6 or more miles (10+ km)
Ceiling: ceiling and visibility are OK
Clouds: unknown
Weather: no significant weather observed at this time

METAR text: LDSP 220030Z AUTO 35004KT CAVOK 24/14 Q1019
Conditions at: LDSP (SPLIT/KASTEL STA, HR) observed 0030 UTC 22 July 2019
Temperature: 24.0°C (75°F)
Dewpoint: 14.0°C (57°F) [RH = 54%]
Pressure (altimeter): 30.09 inches Hg (1019.0 mb)
Winds: from the N (350 degrees) at 5 MPH (4 knots; 2.1 m/s)
Visibility: 6 or more miles (10+ km)
Ceiling: ceiling and visibility are OK
Clouds: unknown
Weather: no significant weather observed at this time

Forecast for: LDSP (SPLIT/KASTEL STA, HR)
Text: TAF LDSP 212325Z 2200/2300 VRB02KT CAVOK TX33/2212Z TN20/2203Z
Forecast period: 0000 to 1800 UTC 22 July 2019
Forecast type: FROM: standard forecast or significant change
Winds: variable direction winds at 2 MPH (2 knots; 1.0 m/s)
Visibility: 6 or more miles 10+ km)
Ceiling: unknown
Clouds: missing
Weather: no significant weather forecast for this period
Text: PROB40
Forecast period: 0900 to 1600 UTC 22 July 2019
Forecast type: TEMPORARY: The following changes expected for less than half the time period
Winds: from the SW (230 degrees) at 12 MPH (10 knots; 5.1 m/s)
Visibility: missing
Ceiling: unknown
Clouds: missing
Weather: no significant weather forecast for this period
Text: TEMPO 2209/2216 23010KT
Forecast period: 1100 to 1600 UTC 22 July 2019
Forecast type: TEMPORARY: The following changes expected for less than half the time period
Visibility: missing
Ceiling: at least 12,000 feet AGL
Clouds: few clouds at 4000 feet AGL
Weather: TSRA  (rain associated with thunderstorm(s))
Text: PROB30
Forecast period: 1800 UTC 22 July 2019 to 0000 UTC 23 July 2019
Forecast type: BECOMING: Conditions expected to become as follows by 2000 UTC 22 July 2019
Winds: from the NE (50 degrees) at 8 MPH (7 knots; 3.6 m/s)
Visibility: 6 or more miles 10+ km)
Ceiling: unknown
Clouds: missing
Weather: no significant weather forecast for this period